To NAV CANADA Home Page Login to a new session Search on AWWS site Feedback and Comments Disclaimer Vers la page française équivalente Tips FAQ What's new on the site To the Forecasts and Observations / NOTAM section To "File a Flight Plan" website Publications and other links Update of the User's profile FIC Telephone Numbers My Weather Data Folder Route Weather Data Regional Weather Data Local Weather Data To the Forecasts and Observations / NOTAM section
Request Generated 09/30/2016 at 06:36:02 UTC . Weather information available at that time is displayed.

METAR/TAF

LLOYDMINSTER/AB    (show WxCam)

METAR CYLL 300600Z AUTO 01004KT 9SM SCT110 BKN230 08/05 A3010 RMK
SLP209=
METAR CYLL 300500Z AUTO 03003KT 9SM FEW120 BKN160 BKN180 08/05 A3011
RMK SLP217=
METAR CYLL 300400Z 04003KT 15SM FEW120 10/05 A3012 RMK AC2 LAST STFD
OBS/NEXT 301300 UTC SLP220=

TAF CYLL 300538Z 3006/3018 VRB03KT P6SM FEW120 BKN160
FM301000 06008KT P6SM SCT090 BKN250 PROB30 3010/3015 1SM BR
FM301500 02008KT P6SM SCT025 SCT120
RMK FCST BASED ON AUTO OBS. NXT FCST BY 301200Z=
Your time UTC time
Weather data provided by Environment Canada and NAV CANADA